This is the latest recevied weather packets stored in our database for station/object KB1JL-13. If no packets are shown the sender has not sent any weather packets the latest 10 day(s).
| Time | Temp. | Humidity | Pressure | Rain* | Wind** | Luminosity | Snow |
|---|---|---|---|---|---|---|---|
| 1777883235 | 7.78° C | 62% | 1023.7 hPa | 0 mm | - | 0 W/m² | - |
| 1777882932 | 7.22° C | 64% | 1024 hPa | 0 mm | - | 0 W/m² | - |
| 1777882629 | 7.22° C | 63% | 1024 hPa | 0 mm | - | 0 W/m² | - |
| 1777882325 | 7.78° C | 62% | 1023.7 hPa | 0 mm | - | 0 W/m² | - |
| 1777882021 | 7.78° C | 62% | 1024 hPa | 0 mm | - | 0 W/m² | - |
| 1777881718 | 7.22° C | 62% | 1024 hPa | 0 mm | - | 0 W/m² | - |
| 1777881415 | 7.22° C | 64% | 1023.7 hPa | 0 mm | - | 0 W/m² | - |
| 1777881112 | 7.22° C | 64% | 1023.7 hPa | 0 mm | - | 0 W/m² | - |
| 1777880810 | 7.22° C | 64% | 1024 hPa | 0 mm | - | 0 W/m² | - |
| 1777880507 | 7.22° C | 63% | 1024 hPa | 0 mm | - | 0 W/m² | - |
| 1777880206 | 7.22° C | 64% | 1023.7 hPa | 0 mm | - | 0 W/m² | - |
| 1777879904 | 7.22° C | 63% | 1023.7 hPa | 0 mm | - | 0 W/m² | - |
| 1777879602 | 7.22° C | 65% | 1023.7 hPa | 0 mm | - | 0 W/m² | - |
| 1777879298 | 7.22° C | 64% | 1023.7 hPa | 0 mm | - | 0 W/m² | - |
| 1777878995 | 7.22° C | 64% | 1023.7 hPa | 0 mm | - | 0 W/m² | - |
| 1777878692 | 7.22° C | 65% | 1023.7 hPa | 0 mm | - | 0 W/m² | - |
| 1777878390 | 7.78° C | 63% | 1023.7 hPa | 0 mm | - | 0 W/m² | - |
| 1777878086 | 7.78° C | 62% | 1024 hPa | 0 mm | - | 0 W/m² | - |
| 1777877782 | 7.78° C | 63% | 1023.7 hPa | 0 mm | - | 0 W/m² | - |
| 1777877480 | 7.22° C | 63% | 1023.7 hPa | 0 mm | - | 0 W/m² | - |
| 1777877176 | 6.67° C | 65% | 1023.7 hPa | 0 mm | - | 0 W/m² | - |
| 1777876873 | 6.11° C | 68% | 1023.7 hPa | 0 mm | - | 0 W/m² | - |
| 1777876571 | 5.56° C | 70% | 1023.4 hPa | 0 mm | - | 0 W/m² | - |
| 1777876269 | 5° C | 71% | 1023.4 hPa | 0 mm | - | 0 W/m² | - |
| 1777875964 | 5.56° C | 72% | 1023.7 hPa | 0 mm | - | 0 W/m² | - |
* Rain latest hour (hover to see other rain measurements)
** Current wind speed in m/s (hover to see current wind gust speed)